RORY

Details ICAO RORY (RNJ)
Name YORON
Region Japan
Timezone Asia/Tokyo (UTC+9.0)
Plans Departing 1
Arriving 5
Stats Elevation 52 ft / 16 m (AMSL)
Location 27.043964° 128.401518°
Runways 1
Magnetic Variation 5.485° W
Sunrise 2017-12-11 22:07:27 UTC / 2017-12-12 07:07:27 Local
Sunset 2017-12-12 08:35:20 UTC / 2017-12-12 17:35:20 Local
Advertisement - Login to hide

Runways

ID Width Length Bearing (true) Bearing (mag) Surface Threshold Offset Overrun Length
14 100 ft / 30 m 4,327 ft / 1,319 m 138.22° 143.70° Asphalt 200 ft / 61 m 0 ft / 0 m
32 100 ft / 30 m 4,327 ft / 1,319 m 318.23° 323.71° Asphalt 200 ft / 61 m 0 ft / 0 m

Map

Weather


0- 5 10 15 20 25 30 35+ Temperature / ° C

Clouds and Precipitation
Forecast for 2017-12-12 12:00 UTC. Updated an hour ago

Ground ~20,000 ft ~40,000 ft Winds

METAR

RORY 120800Z AUTO 02013KT 9999 FEW036 BKN070 17/09 Q1020

TAF

Not found

Frequencies

Tower 118.30 MHz REMOTE
Warning: Do not use this data for real-world aviation or navigation. No guarantee of current accuracy is given.